aviador You're here:

YBTL Decoded Metar

TOWNSVILLE in AUSTRALIA
Report Time2018-05-26 08:00:00
UTC Time2018-05-26 08:19:49
Flight Rules vfr VFR
Wind100° at 12 kt
W.Decomp.*RWY 07: 11.1 kt HW 4.5 kt RCW
RWY 01: 1.7 kt HW 11.9 kt RCW
W.Rank100° ranks 11
Current wind is above 100° avg. (10.5)
Visibility9999 m
Phenomena:N/A
Clouds:N/A
Expected CloudBase > 2,800 ft AGL from Temp-Dew spread
CeilingNone
Temp24°C (ISA +9)
Dew Point17°C (65% RH)
AAT22.1°C
QNH1017 hPa
Density Alt1,191 ft
Elevation20 ft
Report Wrong Elevation
Raw Report
METAR YBTL 260800Z AUTO 10012KT 9999 // NCD 24/17 Q1017=

Extra information for YBTL:More info

Metar Taf Metar & Taf Last 4 Metars F.Rules Stats Wind Profile Meteogram Temp Stats Airport Information Weather charts Add Link Nearby VenuesMetar ALERT Operation Metar Decoded Social comments